createdAt,value
2019-05-12T00:02:08.704Z,9.70
2019-05-12T00:04:38.403Z,9.60
2019-05-12T00:07:05.751Z,9.60
2019-05-12T00:09:33.418Z,9.60
2019-05-12T00:12:01.236Z,9.60
2019-05-12T00:14:28.903Z,9.60
2019-05-12T00:16:58.066Z,9.60
2019-05-12T00:19:28.346Z,9.60
2019-05-12T00:21:55.531Z,9.60
2019-05-12T00:24:23.367Z,9.60
2019-05-12T00:26:52.728Z,9.60
2019-05-12T00:29:20.419Z,9.60
2019-05-12T00:31:48.115Z,9.60
2019-05-12T00:34:18.212Z,9.50
2019-05-12T00:36:45.187Z,9.50
2019-05-12T00:39:12.831Z,9.60
2019-05-12T00:41:40.527Z,9.50
2019-05-12T00:44:08.832Z,9.60
2019-05-12T00:46:38.551Z,9.60
2019-05-12T00:49:08.005Z,9.60
2019-05-12T00:51:38.131Z,9.60
2019-05-12T00:54:05.071Z,9.60
2019-05-12T00:56:32.739Z,9.50
2019-05-12T00:59:00.375Z,9.50
2019-05-12T01:01:28.585Z,9.50
2019-05-12T01:03:57.954Z,9.50
2019-05-12T01:06:27.700Z,9.40
2019-05-12T01:08:55.230Z,9.40
2019-05-12T01:11:22.919Z,9.40
2019-05-12T01:13:50.831Z,9.40
2019-05-12T01:16:18.568Z,9.40
2019-05-12T01:18:48.000Z,9.40
2019-05-12T01:21:18.300Z,9.40
2019-05-12T01:23:56.325Z,9.40
2019-05-12T01:26:14.399Z,9.40
2019-05-12T01:28:42.031Z,9.40
2019-05-12T01:31:11.374Z,9.40
2019-05-12T01:33:39.011Z,9.30
2019-05-12T01:36:07.917Z,9.30
2019-05-12T01:38:37.898Z,9.40
2019-05-12T01:41:05.225Z,9.30
2019-05-12T01:43:33.124Z,9.30
2019-05-12T01:46:00.805Z,9.30
2019-05-12T01:48:28.846Z,9.30
2019-05-12T01:50:57.931Z,9.30
2019-05-12T01:53:25.854Z,9.30
2019-05-12T01:55:53.547Z,9.30
2019-05-12T01:58:21.183Z,9.30
2019-05-12T02:00:49.239Z,9.30
2019-05-12T02:03:17.882Z,9.30
2019-05-12T02:05:48.546Z,9.30
2019-05-12T02:08:18.522Z,9.30
2019-05-12T02:10:48.122Z,9.30
2019-05-12T02:13:18.169Z,9.30
2019-05-12T02:15:45.300Z,9.30
2019-05-12T02:18:12.941Z,9.30
2019-05-12T02:20:40.603Z,9.20
2019-05-12T02:23:08.974Z,9.10
2019-05-12T02:25:38.059Z,9.10
2019-05-12T02:28:08.796Z,9.10
2019-05-12T02:30:35.725Z,9.20
2019-05-12T02:33:05.207Z,9.20
2019-05-12T02:35:35.486Z,9.20
2019-05-12T02:38:04.810Z,9.20
2019-05-12T02:40:34.351Z,9.20
2019-05-12T02:43:01.060Z,9.20
2019-05-12T02:45:28.993Z,9.20
2019-05-12T02:47:56.721Z,9.20
2019-05-12T02:50:37.477Z,9.20
2019-05-12T02:53:06.014Z,9.20
2019-05-12T02:55:35.064Z,9.20
2019-05-12T02:58:04.934Z,9.20
2019-05-12T03:00:35.279Z,9.20
2019-05-12T03:03:05.450Z,9.10
2019-05-12T03:05:35.117Z,9.10
2019-05-12T03:08:04.940Z,9.10
2019-05-12T03:10:35.479Z,9.10
2019-05-12T03:13:04.469Z,9.20
2019-05-12T03:15:35.838Z,9.10
2019-05-12T03:18:05.619Z,9.10
2019-05-12T03:20:31.048Z,9.10
2019-05-12T03:22:58.724Z,9.10
2019-05-12T03:25:30.001Z,9.10
2019-05-12T03:27:55.821Z,9.10
2019-05-12T03:30:29.205Z,9.10
2019-05-12T03:32:57.916Z,9.10
2019-05-12T03:35:32.255Z,9.10
2019-05-12T03:37:54.795Z,9.10
2019-05-12T03:40:24.646Z,9.10
2019-05-12T03:42:51.040Z,9.10
2019-05-12T03:45:18.678Z,9.10
2019-05-12T03:47:46.344Z,9.10
2019-05-12T03:50:14.902Z,9.10
2019-05-12T03:52:45.016Z,9.10
2019-05-12T03:55:30.320Z,9.10
2019-05-12T03:57:44.851Z,9.10
2019-05-12T04:00:11.116Z,9.10
2019-05-12T04:02:38.783Z,9.10
2019-05-12T04:05:06.808Z,9.10
2019-05-12T04:07:34.756Z,9.10
2019-05-12T04:10:05.297Z,9.10
2019-05-12T04:12:34.648Z,9.00
2019-05-12T04:15:05.215Z,9.10
2019-05-12T04:17:31.133Z,9.10
2019-05-12T04:19:58.788Z,9.00
2019-05-12T04:22:26.454Z,9.00
2019-05-12T04:24:55.126Z,9.00
2019-05-12T04:27:25.116Z,9.00
2019-05-12T04:29:54.737Z,9.00
2019-05-12T04:32:24.830Z,9.10
2019-05-12T04:34:51.290Z,9.10
2019-05-12T04:37:18.961Z,9.00
2019-05-12T04:39:46.623Z,9.00
2019-05-12T04:42:15.016Z,9.00
2019-05-12T04:44:44.865Z,9.10
2019-05-12T04:47:14.570Z,9.10
2019-05-12T04:49:44.982Z,9.10
2019-05-12T04:52:11.303Z,9.10
2019-05-12T04:54:38.938Z,9.10
2019-05-12T04:57:06.613Z,9.00
2019-05-12T04:59:34.692Z,9.00
2019-05-12T05:02:05.436Z,9.00
2019-05-12T05:04:34.545Z,9.00
2019-05-12T05:07:04.305Z,9.00
2019-05-12T05:09:30.677Z,9.00
2019-05-12T05:11:58.445Z,9.00
2019-05-12T05:14:26.075Z,9.00
2019-05-12T05:16:54.328Z,9.00
2019-05-12T05:19:24.277Z,9.00
2019-05-12T05:21:51.578Z,9.00
2019-05-12T05:24:19.227Z,9.00
2019-05-12T05:26:46.895Z,9.00
2019-05-12T05:29:14.608Z,9.00
2019-05-12T05:31:44.158Z,8.90
2019-05-12T05:34:11.968Z,8.90
2019-05-12T05:36:39.616Z,8.90
2019-05-12T05:39:07.286Z,8.90
2019-05-12T05:41:34.928Z,8.90
2019-05-12T05:44:03.132Z,8.80
2019-05-12T05:46:33.442Z,8.80
2019-05-12T05:49:00.359Z,8.80
2019-05-12T05:51:28.267Z,8.80
2019-05-12T05:53:55.940Z,8.80
2019-05-12T05:56:37.593Z,8.80
2019-05-12T05:58:54.660Z,8.70
2019-05-12T06:01:24.481Z,8.70
2019-05-12T06:03:53.224Z,8.70
2019-05-12T06:06:21.031Z,8.70
2019-05-12T06:08:58.951Z,8.80
2019-05-12T06:11:28.351Z,8.70
2019-05-12T06:13:56.247Z,8.70
2019-05-12T06:16:25.136Z,8.70
2019-05-12T06:18:54.406Z,8.70
2019-05-12T06:21:24.182Z,8.60
2019-05-12T06:23:53.971Z,8.60
2019-05-12T06:26:30.845Z,8.60
2019-05-12T06:28:50.779Z,8.60
2019-05-12T06:31:18.887Z,8.50
2019-05-12T06:33:47.822Z,8.50
2019-05-12T06:36:22.009Z,8.40
2019-05-12T06:38:44.876Z,8.40
2019-05-12T06:41:20.295Z,8.40
2019-05-12T06:43:44.741Z,8.40
2019-05-12T06:46:11.895Z,8.30
2019-05-12T06:48:43.217Z,8.30
2019-05-12T06:51:17.028Z,8.30
2019-05-12T06:53:39.801Z,8.30
2019-05-12T06:56:09.448Z,8.40
2019-05-12T06:58:36.848Z,8.30
2019-05-12T07:01:10.388Z,8.30
2019-05-12T07:03:37.033Z,8.30
2019-05-12T07:06:04.112Z,8.30
2019-05-12T07:08:37.532Z,8.30
2019-05-12T07:11:03.710Z,8.30
2019-05-12T07:13:30.742Z,8.40
2019-05-12T07:16:00.074Z,8.30
2019-05-12T07:18:32.372Z,8.40
2019-05-12T07:20:57.363Z,8.40
2019-05-12T07:23:29.675Z,8.40
2019-05-12T07:25:55.092Z,8.30
2019-05-12T07:28:23.727Z,8.30
2019-05-12T07:30:57.983Z,8.30
2019-05-12T07:33:26.239Z,8.30
2019-05-12T07:36:00.937Z,8.30
2019-05-12T07:38:26.122Z,8.30
2019-05-12T07:40:54.297Z,8.30
2019-05-12T07:43:24.260Z,8.30
2019-05-12T07:46:01.836Z,8.30
2019-05-12T07:48:23.258Z,8.30
2019-05-12T07:50:56.450Z,8.30
2019-05-12T07:53:20.454Z,8.30
2019-05-12T07:55:49.499Z,8.30
2019-05-12T07:58:18.954Z,8.30
2019-05-12T08:00:46.827Z,8.30
2019-05-12T08:03:20.739Z,8.30
2019-05-12T08:05:44.026Z,8.30
2019-05-12T08:08:11.802Z,8.20
2019-05-12T08:10:39.471Z,8.20
2019-05-12T08:13:07.136Z,8.20
2019-05-12T08:15:34.799Z,8.20
2019-05-12T08:18:07.196Z,8.20
2019-05-12T08:20:34.067Z,8.20
2019-05-12T08:23:05.778Z,8.10
2019-05-12T08:25:30.616Z,8.10
2019-05-12T08:28:10.188Z,8.10
2019-05-12T08:30:33.621Z,8.20
2019-05-12T08:33:03.746Z,8.20
2019-05-12T08:35:35.021Z,8.20
2019-05-12T08:38:00.183Z,8.30
2019-05-12T08:40:28.326Z,8.20
2019-05-12T08:42:59.493Z,8.20
2019-05-12T08:45:33.668Z,8.30
2019-05-12T08:47:54.747Z,8.20
2019-05-12T08:50:31.093Z,8.20
2019-05-12T08:52:53.810Z,8.20
2019-05-12T08:55:25.179Z,8.20
2019-05-12T08:57:50.563Z,8.20
2019-05-12T09:00:19.763Z,8.20
2019-05-12T09:02:50.572Z,8.30
2019-05-12T09:05:16.796Z,8.10
2019-05-12T09:07:45.261Z,8.10
2019-05-12T09:10:14.281Z,7.90
2019-05-12T09:12:44.080Z,8.00
2019-05-12T09:15:13.416Z,7.90
2019-05-12T09:17:49.190Z,8.00
2019-05-12T09:20:10.319Z,7.90
2019-05-12T09:22:38.298Z,7.80
2019-05-12T09:25:08.289Z,7.80
2019-05-12T09:27:39.603Z,7.80
2019-05-12T09:30:09.481Z,7.90
2019-05-12T09:32:34.406Z,7.90
2019-05-12T09:35:04.525Z,7.80
2019-05-12T09:37:39.025Z,7.80
2019-05-12T09:40:01.573Z,7.80
2019-05-12T09:42:30.179Z,7.70
2019-05-12T09:44:59.979Z,7.60
2019-05-12T09:47:27.889Z,7.60
2019-05-12T09:49:55.715Z,7.70
2019-05-12T09:52:27.099Z,7.80
2019-05-12T09:54:53.481Z,7.90
2019-05-12T09:57:21.319Z,7.90
2019-05-12T09:59:55.479Z,7.90
2019-05-12T10:02:20.711Z,7.80
2019-05-12T10:04:50.372Z,7.80
2019-05-12T10:07:17.148Z,7.80
2019-05-12T10:09:49.165Z,7.80
2019-05-12T10:12:14.170Z,7.80
2019-05-12T10:14:45.990Z,7.80
2019-05-12T10:17:11.415Z,7.80
2019-05-12T10:19:39.079Z,7.70
2019-05-12T10:22:06.726Z,7.70
2019-05-12T10:24:41.559Z,7.70
2019-05-12T10:27:04.002Z,7.70
2019-05-12T10:29:32.450Z,7.80
2019-05-12T10:32:00.275Z,7.80
2019-05-12T10:34:29.420Z,7.70
2019-05-12T10:36:57.392Z,7.70
2019-05-12T10:39:25.035Z,7.70
2019-05-12T10:41:54.532Z,7.70
2019-05-12T10:44:22.120Z,7.70
2019-05-12T10:46:53.318Z,7.60
2019-05-12T10:49:23.188Z,7.60
2019-05-12T10:51:50.239Z,7.60
2019-05-12T10:54:17.944Z,7.60
2019-05-12T10:56:45.640Z,7.60
2019-05-12T10:59:13.430Z,7.70
2019-05-12T11:01:47.256Z,7.60
2019-05-12T11:04:10.715Z,7.60
2019-05-12T11:06:42.292Z,7.60
2019-05-12T11:09:08.421Z,7.60
2019-05-12T11:11:42.299Z,7.70
2019-05-12T11:14:06.456Z,7.70
2019-05-12T11:16:35.060Z,7.70
2019-05-12T11:19:08.736Z,7.80
2019-05-12T11:21:33.638Z,7.80
2019-05-12T11:24:03.748Z,7.80
2019-05-12T11:26:30.827Z,7.90
2019-05-12T11:28:58.511Z,7.90
2019-05-12T11:31:26.231Z,8.00
2019-05-12T11:33:54.218Z,8.00
2019-05-12T11:36:24.121Z,8.00
2019-05-12T11:38:53.386Z,8.00
2019-05-12T11:41:21.243Z,8.00
2019-05-12T11:43:48.891Z,8.10
2019-05-12T11:46:16.559Z,8.20
2019-05-12T11:48:46.307Z,8.20
2019-05-12T11:51:14.451Z,8.20
2019-05-12T11:53:44.533Z,8.30
2019-05-12T11:56:13.826Z,8.30
2019-05-12T11:58:46.564Z,8.30
2019-05-12T12:01:13.498Z,8.40
2019-05-12T12:03:41.351Z,8.30
2019-05-12T12:06:09.239Z,8.40
2019-05-12T12:08:37.411Z,8.30
2019-05-12T12:11:05.229Z,8.30
2019-05-12T12:13:33.715Z,8.40
2019-05-12T12:16:07.099Z,8.40
2019-05-12T12:18:31.159Z,8.40
2019-05-12T12:21:04.257Z,8.40
2019-05-12T12:23:28.206Z,8.40
2019-05-12T12:25:56.098Z,8.40
2019-05-12T12:28:24.280Z,8.40
2019-05-12T12:30:56.933Z,8.40
2019-05-12T12:33:23.400Z,8.50
2019-05-12T12:35:56.550Z,8.60
2019-05-12T12:38:20.221Z,8.70
2019-05-12T12:40:47.867Z,8.70
2019-05-12T12:43:15.541Z,8.70
2019-05-12T12:45:50.879Z,8.70
2019-05-12T12:48:19.499Z,8.70
2019-05-12T12:50:48.384Z,8.70
2019-05-12T12:53:16.052Z,8.60
2019-05-12T12:55:45.166Z,8.50
2019-05-12T12:58:14.082Z,8.40
2019-05-12T13:00:47.944Z,8.50
2019-05-12T13:03:11.374Z,8.50
2019-05-12T13:05:39.015Z,8.50
2019-05-12T13:08:06.707Z,8.40
2019-05-12T13:13:53.519Z,8.40
2019-05-12T13:16:21.259Z,8.40
2019-05-12T13:18:48.930Z,8.40
2019-05-12T13:21:16.661Z,8.30
2019-05-12T13:23:45.355Z,8.30
2019-05-12T13:26:13.514Z,8.30
2019-05-12T13:28:45.499Z,8.20
2019-05-12T13:31:13.676Z,8.20
2019-05-12T13:33:40.142Z,8.20
2019-05-12T13:36:08.176Z,8.10
2019-05-12T13:38:40.403Z,8.00
2019-05-12T13:41:09.707Z,8.10
2019-05-12T13:43:35.649Z,8.00
2019-05-12T13:46:03.407Z,8.10
2019-05-12T13:48:31.234Z,8.00
2019-05-12T13:51:07.390Z,8.10
2019-05-12T13:53:28.623Z,8.10
2019-05-12T13:55:56.261Z,8.10
2019-05-12T13:58:28.321Z,8.10
2019-05-12T14:01:10.609Z,8.10
2019-05-12T14:03:23.316Z,8.10
2019-05-12T14:05:52.479Z,8.10
2019-05-12T14:08:20.692Z,8.10
2019-05-12T14:10:53.479Z,8.20
2019-05-12T14:13:17.776Z,8.20
2019-05-12T14:15:45.465Z,8.20
2019-05-12T14:18:18.462Z,8.30
2019-05-12T14:20:44.917Z,8.20
2019-05-12T14:23:14.075Z,8.20
2019-05-12T14:25:43.772Z,8.20
2019-05-12T14:28:13.674Z,8.20
2019-05-12T14:30:41.170Z,8.10
2019-05-12T14:33:10.220Z,8.10
2019-05-12T14:35:40.845Z,8.10
2019-05-12T14:38:07.573Z,8.10
2019-05-12T14:40:35.360Z,8.10
2019-05-12T14:43:03.669Z,8.00
2019-05-12T14:45:33.256Z,8.00
2019-05-12T14:48:05.701Z,7.90
2019-05-12T14:50:30.640Z,7.90
2019-05-12T14:52:59.870Z,8.00
2019-05-12T14:55:27.687Z,7.90
2019-05-12T14:57:55.807Z,7.90
2019-05-12T15:00:24.192Z,8.00
2019-05-12T15:02:53.988Z,7.90
2019-05-12T15:05:25.235Z,7.80
2019-05-12T15:07:54.411Z,7.80
2019-05-12T15:10:20.491Z,7.80
2019-05-12T15:12:48.140Z,7.80
2019-05-12T15:15:20.640Z,7.80
2019-05-12T15:17:45.736Z,7.80
2019-05-12T15:20:13.943Z,7.80
2019-05-12T15:22:42.958Z,7.70
2019-05-12T15:25:11.536Z,7.70
2019-05-12T15:27:45.037Z,7.70
2019-05-12T15:30:20.248Z,7.80
2019-05-12T15:32:38.451Z,7.80
2019-05-12T15:35:06.159Z,7.80
2019-05-12T15:37:38.775Z,7.80
2019-05-12T15:40:04.682Z,7.80
2019-05-12T15:42:33.650Z,7.80
2019-05-12T15:45:06.605Z,7.90
2019-05-12T15:47:30.933Z,7.80
2019-05-12T15:49:58.572Z,7.80
2019-05-12T15:52:29.953Z,7.80
2019-05-12T15:54:55.615Z,7.80
2019-05-12T15:57:24.460Z,7.80
2019-05-12T15:59:54.104Z,7.80
2019-05-12T16:02:23.512Z,7.90
2019-05-12T16:04:51.374Z,7.90
2019-05-12T16:07:19.580Z,7.90
2019-05-12T16:09:47.439Z,7.90
2019-05-12T16:12:20.269Z,7.90
2019-05-12T16:14:44.679Z,7.90
2019-05-12T16:17:17.786Z,7.80
2019-05-12T16:19:43.828Z,7.80
2019-05-12T16:22:11.103Z,7.80
2019-05-12T16:24:43.423Z,7.80
2019-05-12T16:27:08.275Z,7.90
2019-05-12T16:29:42.294Z,7.90
2019-05-12T16:32:05.376Z,7.80
2019-05-12T16:34:36.098Z,7.90
2019-05-12T16:37:04.067Z,7.90
2019-05-12T16:39:37.183Z,7.90
2019-05-12T16:42:08.350Z,7.90
2019-05-12T16:44:30.839Z,7.90
2019-05-12T16:46:59.543Z,7.90
2019-05-12T16:49:33.344Z,7.80
2019-05-12T16:51:58.529Z,7.80
2019-05-12T16:54:26.171Z,7.80
2019-05-12T16:56:53.916Z,7.80
2019-05-12T16:59:24.149Z,7.80
2019-05-12T17:01:54.148Z,7.80
2019-05-12T17:04:23.739Z,7.90
2019-05-12T17:06:51.183Z,7.90
2019-05-12T17:09:18.819Z,7.80
2019-05-12T17:11:52.439Z,7.80
2019-05-12T17:14:18.178Z,7.80
2019-05-12T17:16:46.715Z,7.80
2019-05-12T17:19:15.488Z,7.80
2019-05-12T17:21:44.144Z,7.80
2019-05-12T17:24:14.455Z,7.80
2019-05-12T17:26:43.852Z,7.80
2019-05-12T17:29:13.443Z,7.80
2019-05-12T18:31:15.612Z,7.70
2019-05-12T18:33:52.173Z,7.80
2019-05-12T18:36:14.345Z,7.70
2019-05-12T18:38:44.444Z,7.70
2019-05-12T18:41:13.765Z,7.70
2019-05-12T18:43:43.358Z,7.70
2019-05-12T18:46:10.223Z,7.70
2019-05-12T18:48:37.863Z,7.70
2019-05-12T18:51:11.865Z,7.70
2019-05-12T18:53:35.106Z,7.70
2019-05-12T18:56:04.566Z,7.70
2019-05-12T18:58:33.359Z,7.70
2019-05-12T19:01:03.394Z,7.70
2019-05-12T19:03:44.811Z,7.70
2019-05-12T19:06:00.285Z,7.70
2019-05-12T19:08:27.980Z,7.70
2019-05-12T19:10:55.891Z,7.70
2019-05-12T19:13:23.666Z,7.60
2019-05-12T19:15:52.651Z,7.60
2019-05-12T19:18:24.403Z,7.70
2019-05-12T19:20:54.318Z,7.60
2019-05-12T19:23:28.617Z,7.60
2019-05-12T19:25:53.987Z,7.60
2019-05-12T19:28:20.849Z,7.60
2019-05-12T19:30:50.228Z,7.60
2019-05-12T19:33:17.901Z,7.60
2019-05-12T19:35:50.501Z,7.60
2019-05-12T19:38:15.555Z,7.60
2019-05-12T19:40:47.383Z,7.60
2019-05-12T19:43:14.126Z,7.50
2019-05-12T19:45:43.542Z,7.60
2019-05-12T19:48:23.092Z,7.60
2019-05-12T19:50:44.533Z,7.60
2019-05-12T19:53:10.479Z,7.60
2019-05-12T19:55:38.199Z,7.60
2019-05-12T19:58:10.962Z,7.60
2019-05-12T20:00:35.339Z,7.60
2019-05-12T20:03:04.514Z,7.60
2019-05-12T20:05:34.345Z,7.60
2019-05-12T20:08:04.140Z,7.60
2019-05-12T20:10:36.174Z,7.60
2019-05-12T20:28:50.312Z,7.60
2019-05-12T20:31:15.111Z,7.50
2019-05-12T20:33:43.434Z,7.60
2019-05-12T20:36:11.256Z,7.60
2019-05-12T20:38:40.675Z,7.60
2019-05-12T20:41:10.973Z,7.50
2019-05-12T20:43:41.263Z,7.50
2019-05-12T20:46:12.102Z,7.50
2019-05-12T20:48:37.125Z,7.50
2019-05-12T20:51:08.779Z,7.60
2019-05-12T20:53:36.539Z,7.60
2019-05-12T20:56:03.859Z,7.60
2019-05-12T20:58:35.230Z,7.60
2019-05-12T21:01:02.871Z,7.50
2019-05-12T21:03:30.723Z,7.60
2019-05-12T21:06:01.564Z,7.50
2019-05-12T21:08:28.128Z,7.60
2019-05-12T21:10:55.797Z,7.60
2019-05-12T21:13:27.185Z,7.50
2019-05-12T21:15:53.972Z,7.50
2019-05-12T21:18:23.722Z,7.50
2019-05-12T21:20:54.480Z,7.50
2019-05-12T21:23:21.076Z,7.50
2019-05-12T21:25:52.335Z,7.50
2019-05-12T21:28:18.301Z,7.40
2019-05-12T21:30:48.223Z,7.40
2019-05-12T21:33:15.479Z,7.40
2019-05-12T21:35:46.154Z,7.40
2019-05-12T21:38:13.495Z,7.40
2019-05-12T21:40:41.554Z,7.40
2019-05-12T21:43:09.754Z,7.40
2019-05-12T21:45:37.397Z,7.40
2019-05-12T21:48:05.113Z,7.40
2019-05-12T21:50:37.925Z,7.40
2019-05-12T21:53:04.369Z,7.40
2019-05-12T21:55:33.987Z,7.40
2019-05-12T21:58:10.540Z,7.40
2019-05-12T22:00:34.662Z,7.40
2019-05-12T22:03:08.182Z,7.40
2019-05-12T22:05:48.136Z,7.30
2019-05-12T22:08:06.403Z,7.40
2019-05-12T22:10:34.410Z,7.30
2019-05-12T22:13:08.993Z,7.30
2019-05-12T22:15:33.799Z,7.30
2019-05-12T22:18:04.181Z,7.30
2019-05-12T22:20:32.421Z,7.30
2019-05-12T22:23:09.597Z,7.30
2019-05-12T22:25:34.528Z,7.30
2019-05-12T22:28:05.427Z,7.30
2019-05-12T22:30:34.787Z,7.30
2019-05-12T22:33:08.585Z,7.30
2019-05-12T22:35:33.611Z,7.30
2019-05-12T22:38:00.894Z,7.30
2019-05-12T22:40:28.903Z,7.30
2019-05-12T22:43:01.104Z,7.30
2019-05-12T22:45:26.296Z,7.30
2019-05-12T22:47:55.139Z,7.30
2019-05-12T22:50:27.383Z,7.30
2019-05-12T22:52:53.384Z,7.30
2019-05-12T22:55:26.233Z,7.30
2019-05-12T22:57:50.550Z,7.30
2019-05-12T23:00:19.180Z,7.30
2019-05-12T23:02:47.971Z,7.30
2019-05-12T23:05:20.363Z,7.30
2019-05-12T23:07:45.294Z,7.30
2019-05-12T23:10:14.276Z,7.30
2019-05-12T23:12:44.117Z,7.30
2019-05-12T23:15:13.646Z,7.30
2019-05-12T23:17:45.159Z,7.30
2019-05-12T23:20:13.537Z,7.30
2019-05-12T23:22:40.467Z,7.30
2019-05-12T23:25:11.527Z,7.30
2019-05-12T23:27:38.019Z,7.20
2019-05-12T23:30:10.970Z,7.30
2019-05-12T23:32:35.590Z,7.30
2019-05-12T23:35:04.535Z,7.30
2019-05-12T23:37:38.339Z,7.30
2019-05-12T23:40:04.175Z,7.20
2019-05-12T23:42:31.038Z,7.20
2019-05-12T23:44:58.776Z,7.20
2019-05-12T23:47:26.451Z,7.20
2019-05-12T23:49:54.152Z,7.20
2019-05-12T23:52:24.001Z,7.20
2019-05-12T23:54:51.214Z,7.20
2019-05-12T23:57:19.189Z,7.20
2019-05-12T23:59:47.123Z,7.20
